sensor_id;sensor_type;location;lat;lon;timestamp;pressure;altitude;pressure_sealevel;temperature;humidity
50292;BME280;36190;54.980;73.388;2022-12-18T00:02:25;102129.53;;;-17.29;71.99
50292;BME280;36190;54.980;73.388;2022-12-18T00:04:52;102136.41;;;-17.28;72.04
50292;BME280;36190;54.980;73.388;2022-12-18T00:07:20;102134.84;;;-17.24;72.11
50292;BME280;36190;54.980;73.388;2022-12-18T00:09:47;102134.88;;;-17.23;72.15
50292;BME280;36190;54.980;73.388;2022-12-18T00:12:15;102136.66;;;-17.20;72.19
50292;BME280;36190;54.980;73.388;2022-12-18T00:14:42;102143.44;;;-17.21;72.10
50292;BME280;36190;54.980;73.388;2022-12-18T00:17:12;102144.31;;;-17.20;72.15
50292;BME280;36190;54.980;73.388;2022-12-18T00:19:39;102144.31;;;-17.20;72.19
50292;BME280;36190;54.980;73.388;2022-12-18T00:22:07;102155.34;;;-17.21;72.09
50292;BME280;36190;54.980;73.388;2022-12-18T00:24:34;102148.44;;;-17.24;72.04
50292;BME280;36190;54.980;73.388;2022-12-18T00:27:02;102159.53;;;-17.23;72.34
50292;BME280;36190;54.980;73.388;2022-12-18T00:29:29;102151.59;;;-17.31;72.12
50292;BME280;36190;54.980;73.388;2022-12-18T00:31:57;102167.06;;;-17.26;72.15
50292;BME280;36190;54.980;73.388;2022-12-18T00:34:26;102168.00;;;-17.24;72.26
50292;BME280;36190;54.980;73.388;2022-12-18T00:36:54;102162.13;;;-17.22;72.31
50292;BME280;36190;54.980;73.388;2022-12-18T00:39:21;102161.97;;;-17.26;72.09
50292;BME280;36190;54.980;73.388;2022-12-18T00:41:49;102175.47;;;-17.29;71.98
50292;BME280;36190;54.980;73.388;2022-12-18T00:44:32;102179.50;;;-17.36;72.01
50292;BME280;36190;54.980;73.388;2022-12-18T00:47:00;102184.63;;;-17.36;72.18
50292;BME280;36190;54.980;73.388;2022-12-18T00:49:28;102187.34;;;-17.31;72.28
50292;BME280;36190;54.980;73.388;2022-12-18T00:51:56;102187.47;;;-17.28;72.38
50292;BME280;36190;54.980;73.388;2022-12-18T00:54:24;102190.03;;;-17.26;72.41
50292;BME280;36190;54.980;73.388;2022-12-18T00:56:51;102196.94;;;-17.24;72.25
50292;BME280;36190;54.980;73.388;2022-12-18T00:59:21;102199.50;;;-17.24;72.24
50292;BME280;36190;54.980;73.388;2022-12-18T01:01:48;102197.75;;;-17.25;72.18
50292;BME280;36190;54.980;73.388;2022-12-18T01:04:15;102194.28;;;-17.27;72.29
50292;BME280;36190;54.980;73.388;2022-12-18T01:06:44;102196.03;;;-17.26;72.26
50292;BME280;36190;54.980;73.388;2022-12-18T01:09:12;102195.13;;;-17.28;72.37
50292;BME280;36190;54.980;73.388;2022-12-18T01:11:39;102192.56;;;-17.28;72.15
50292;BME280;36190;54.980;73.388;2022-12-18T01:14:07;102196.78;;;-17.29;72.10
50292;BME280;36190;54.980;73.388;2022-12-18T01:16:34;102199.41;;;-17.27;72.26
50292;BME280;36190;54.980;73.388;2022-12-18T01:19:02;102199.50;;;-17.24;72.28
50292;BME280;36190;54.980;73.388;2022-12-18T01:21:29;102207.25;;;-17.21;72.38
50292;BME280;36190;54.980;73.388;2022-12-18T01:23:58;102211.56;;;-17.20;72.27
50292;BME280;36190;54.980;73.388;2022-12-18T01:26:26;102202.25;;;-17.18;72.34
50292;BME280;36190;54.980;73.388;2022-12-18T01:28:55;102202.31;;;-17.16;72.39
50292;BME280;36190;54.980;73.388;2022-12-18T01:31:24;102206.66;;;-17.14;72.29
50292;BME280;36190;54.980;73.388;2022-12-18T01:33:52;102207.59;;;-17.11;72.40
50292;BME280;36190;54.980;73.388;2022-12-18T01:36:22;102199.72;;;-17.18;72.33
50292;BME280;36190;54.980;73.388;2022-12-18T01:38:50;102206.56;;;-17.17;72.29
50292;BME280;36190;54.980;73.388;2022-12-18T01:41:22;102202.97;;;-17.22;72.14
50292;BME280;36190;54.980;73.388;2022-12-18T01:43:52;102205.47;;;-17.23;72.36
50292;BME280;36190;54.980;73.388;2022-12-18T01:46:21;102200.38;;;-17.23;72.40
50292;BME280;36190;54.980;73.388;2022-12-18T01:48:53;102221.78;;;-17.20;72.41
50292;BME280;36190;54.980;73.388;2022-12-18T01:51:23;102224.41;;;-17.17;72.57
50292;BME280;36190;54.980;73.388;2022-12-18T01:53:50;102221.03;;;-17.16;72.59
50292;BME280;36190;54.980;73.388;2022-12-18T01:56:20;102208.84;;;-17.24;72.44
50292;BME280;36190;54.980;73.388;2022-12-18T01:58:54;102230.03;;;-17.27;72.37
50292;BME280;36190;54.980;73.388;2022-12-18T02:01:24;102231.53;;;-17.32;72.26
50292;BME280;36190;54.980;73.388;2022-12-18T02:03:52;102230.50;;;-17.37;72.42
50292;BME280;36190;54.980;73.388;2022-12-18T02:06:23;102231.22;;;-17.42;72.10
50292;BME280;36190;54.980;73.388;2022-12-18T02:09:08;102237.88;;;-17.45;72.55
50292;BME280;36190;54.980;73.388;2022-12-18T02:11:46;102240.38;;;-17.47;72.55
50292;BME280;36190;54.980;73.388;2022-12-18T02:14:22;102243.75;;;-17.48;72.61
50292;BME280;36190;54.980;73.388;2022-12-18T02:16:57;102222.09;;;-17.59;72.61
50292;BME280;36190;54.980;73.388;2022-12-18T02:19:43;102241.78;;;-17.55;72.67
50292;BME280;36190;54.980;73.388;2022-12-18T02:22:27;102244.31;;;-17.55;72.63
50292;BME280;36190;54.980;73.388;2022-12-18T02:25:06;102248.78;;;-17.49;72.90
50292;BME280;36190;54.980;73.388;2022-12-18T02:27:41;102236.91;;;-17.49;72.92
50292;BME280;36190;54.980;73.388;2022-12-18T02:30:12;102242.16;;;-17.44;72.77
50292;BME280;36190;54.980;73.388;2022-12-18T02:32:43;102252.47;;;-17.41;72.84
50292;BME280;36190;54.980;73.388;2022-12-18T02:35:16;102246.69;;;-17.37;73.10
50292;BME280;36190;54.980;73.388;2022-12-18T02:37:47;102250.16;;;-17.35;72.95
50292;BME280;36190;54.980;73.388;2022-12-18T02:40:17;102262.16;;;-17.32;73.05
50292;BME280;36190;54.980;73.388;2022-12-18T02:42:46;102263.91;;;-17.31;73.15
50292;BME280;36190;54.980;73.388;2022-12-18T02:45:13;102264.94;;;-17.26;73.18
50292;BME280;36190;54.980;73.388;2022-12-18T02:47:43;102261.63;;;-17.23;73.20
50292;BME280;36190;54.980;73.388;2022-12-18T02:50:18;102267.72;;;-17.20;73.28
50292;BME280;36190;54.980;73.388;2022-12-18T02:52:58;102272.03;;;-17.17;73.31
50292;BME280;36190;54.980;73.388;2022-12-18T02:55:37;102275.47;;;-17.17;73.16
50292;BME280;36190;54.980;73.388;2022-12-18T02:58:15;102280.50;;;-17.18;73.07
50292;BME280;36190;54.980;73.388;2022-12-18T03:00:50;102289.66;;;-17.25;72.99
50292;BME280;36190;54.980;73.388;2022-12-18T03:03:25;102285.63;;;-17.43;72.98
50292;BME280;36190;54.980;73.388;2022-12-18T03:05:58;102299.28;;;-17.40;72.88
50292;BME280;36190;54.980;73.388;2022-12-18T03:08:29;102296.47;;;-17.48;73.18
50292;BME280;36190;54.980;73.388;2022-12-18T03:11:03;102301.59;;;-17.47;73.11
50292;BME280;36190;54.980;73.388;2022-12-18T03:13:36;102297.47;;;-17.45;73.21
50292;BME280;36190;54.980;73.388;2022-12-18T03:16:06;102286.28;;;-17.47;73.11
50292;BME280;36190;54.980;73.388;2022-12-18T03:18:38;102298.53;;;-17.38;73.37
50292;BME280;36190;54.980;73.388;2022-12-18T03:21:11;102301.16;;;-17.36;73.44
50292;BME280;36190;54.980;73.388;2022-12-18T03:23:42;102296.91;;;-17.36;73.40
50292;BME280;36190;54.980;73.388;2022-12-18T03:26:16;102308.34;;;-17.26;73.41
50292;BME280;36190;54.980;73.388;2022-12-18T03:28:49;102310.88;;;-17.26;73.27
50292;BME280;36190;54.980;73.388;2022-12-18T03:31:19;102317.63;;;-17.28;73.34
50292;BME280;36190;54.980;73.388;2022-12-18T03:33:52;102308.00;;;-17.35;73.28
50292;BME280;36190;54.980;73.388;2022-12-18T03:36:21;102321.03;;;-17.28;73.25
50292;BME280;36190;54.980;73.388;2022-12-18T03:38:49;102320.28;;;-17.25;73.33
50292;BME280;36190;54.980;73.388;2022-12-18T03:41:19;102299.53;;;-17.34;73.40
50292;BME280;36190;54.980;73.388;2022-12-18T03:43:57;102321.53;;;-17.14;73.22
50292;BME280;36190;54.980;73.388;2022-12-18T03:46:30;102325.03;;;-17.11;73.25
50292;BME280;36190;54.980;73.388;2022-12-18T03:49:02;102315.81;;;-17.06;73.32
50292;BME280;36190;54.980;73.388;2022-12-18T03:51:39;102321.13;;;-17.00;73.14
50292;BME280;36190;54.980;73.388;2022-12-18T03:54:10;102317.06;;;-16.95;73.05
50292;BME280;36190;54.980;73.388;2022-12-18T03:56:41;102323.16;;;-16.91;73.01
50292;BME280;36190;54.980;73.388;2022-12-18T03:59:12;102317.16;;;-16.92;73.04
50292;BME280;36190;54.980;73.388;2022-12-18T04:01:45;102308.47;;;-16.97;72.97
50292;BME280;36190;54.980;73.388;2022-12-18T04:04:14;102315.31;;;-16.96;72.87
50292;BME280;36190;54.980;73.388;2022-12-18T04:06:44;102334.38;;;-16.86;72.85
50292;BME280;36190;54.980;73.388;2022-12-18T04:09:12;102338.72;;;-16.83;72.85
50292;BME280;36190;54.980;73.388;2022-12-18T04:11:40;102326.06;;;-16.80;72.89
50292;BME280;36190;54.980;73.388;2022-12-18T04:14:11;102337.31;;;-16.75;73.06
50292;BME280;36190;54.980;73.388;2022-12-18T04:16:38;102343.66;;;-16.64;73.10
50292;BME280;36190;54.980;73.388;2022-12-18T04:19:06;102338.06;;;-16.53;72.95
50292;BME280;36190;54.980;73.388;2022-12-18T04:21:33;102341.84;;;-16.42;73.17
50292;BME280;36190;54.980;73.388;2022-12-18T04:24:01;102345.53;;;-16.34;72.95
50292;BME280;36190;54.980;73.388;2022-12-18T04:26:28;102352.59;;;-16.26;73.04
50292;BME280;36190;54.980;73.388;2022-12-18T04:28:55;102353.63;;;-16.21;72.96
50292;BME280;36190;54.980;73.388;2022-12-18T04:31:24;102358.13;;;-16.14;72.84
50292;BME280;36190;54.980;73.388;2022-12-18T04:33:52;102348.53;;;-16.20;72.68
50292;BME280;36190;54.980;73.388;2022-12-18T04:36:19;102365.97;;;-16.08;72.75
50292;BME280;36190;54.980;73.388;2022-12-18T04:38:47;102367.06;;;-16.01;72.85
50292;BME280;36190;54.980;73.388;2022-12-18T04:41:14;102363.72;;;-15.98;72.65
50292;BME280;36190;54.980;73.388;2022-12-18T04:43:42;102364.59;;;-15.98;72.84
50292;BME280;36190;54.980;73.388;2022-12-18T04:46:09;102366.31;;;-15.97;72.59
50292;BME280;36190;54.980;73.388;2022-12-18T04:48:38;102367.97;;;-15.99;72.48
50292;BME280;36190;54.980;73.388;2022-12-18T04:51:06;102368.75;;;-16.01;72.46
50292;BME280;36190;54.980;73.388;2022-12-18T04:53:34;102373.72;;;-16.06;72.65
50292;BME280;36190;54.980;73.388;2022-12-18T04:56:06;102380.66;;;-16.02;72.72
50292;BME280;36190;54.980;73.388;2022-12-18T04:58:34;102383.41;;;-15.96;72.70
50292;BME280;36190;54.980;73.388;2022-12-18T05:01:02;102386.13;;;-15.91;72.80
50292;BME280;36190;54.980;73.388;2022-12-18T05:03:30;102385.47;;;-15.84;72.70
50292;BME280;36190;54.980;73.388;2022-12-18T05:05:59;102389.88;;;-15.80;72.74
50292;BME280;36190;54.980;73.388;2022-12-18T05:08:26;102391.81;;;-15.72;72.75
50292;BME280;36190;54.980;73.388;2022-12-18T05:10:58;102390.16;;;-15.70;72.52
50292;BME280;36190;54.980;73.388;2022-12-18T05:13:26;102397.22;;;-15.63;72.37
50292;BME280;36190;54.980;73.388;2022-12-18T05:15:54;102396.47;;;-15.60;72.59
50292;BME280;36190;54.980;73.388;2022-12-18T05:18:21;102395.66;;;-15.58;72.37
50292;BME280;36190;54.980;73.388;2022-12-18T05:20:49;102395.03;;;-15.51;72.59
50292;BME280;36190;54.980;73.388;2022-12-18T05:23:18;102393.56;;;-15.42;72.64
50292;BME280;36190;54.980;73.388;2022-12-18T05:25:49;102382.69;;;-15.35;72.59
50292;BME280;36190;54.980;73.388;2022-12-18T05:28:17;102386.16;;;-15.33;72.49
50292;BME280;36190;54.980;73.388;2022-12-18T05:30:48;102391.41;;;-15.30;72.32
50292;BME280;36190;54.980;73.388;2022-12-18T05:33:16;102381.88;;;-15.34;72.16
50292;BME280;36190;54.980;73.388;2022-12-18T05:35:43;102387.94;;;-15.32;72.43
50292;BME280;36190;54.980;73.388;2022-12-18T05:38:11;102389.94;;;-15.22;72.58
50292;BME280;36190;54.980;73.388;2022-12-18T05:40:43;102388.78;;;-15.02;72.64
50292;BME280;36190;54.980;73.388;2022-12-18T05:43:11;102393.41;;;-14.90;72.74
50292;BME280;36190;54.980;73.388;2022-12-18T05:45:39;102390.31;;;-14.79;72.43
50292;BME280;36190;54.980;73.388;2022-12-18T05:48:07;102395.69;;;-14.68;72.21
50292;BME280;36190;54.980;73.388;2022-12-18T05:50:35;102403.38;;;-14.68;71.93
50292;BME280;36190;54.980;73.388;2022-12-18T05:53:03;102397.44;;;-14.67;71.83
50292;BME280;36190;54.980;73.388;2022-12-18T05:55:33;102399.19;;;-14.64;71.78
50292;BME280;36190;54.980;73.388;2022-12-18T05:58:03;102401.88;;;-14.59;72.04
50292;BME280;36190;54.980;73.388;2022-12-18T06:00:32;102407.19;;;-14.53;71.90
50292;BME280;36190;54.980;73.388;2022-12-18T06:03:01;102408.28;;;-14.45;72.05
50292;BME280;36190;54.980;73.388;2022-12-18T06:05:28;102418.66;;;-14.40;71.75
50292;BME280;36190;54.980;73.388;2022-12-18T06:07:56;102420.25;;;-14.45;71.65
50292;BME280;36190;54.980;73.388;2022-12-18T06:10:23;102409.03;;;-14.49;71.30
50292;BME280;36190;54.980;73.388;2022-12-18T06:12:50;102414.31;;;-14.43;71.72
50292;BME280;36190;54.980;73.388;2022-12-18T06:15:19;102421.19;;;-14.42;71.72
50292;BME280;36190;54.980;73.388;2022-12-18T06:17:47;102421.47;;;-14.31;71.78
50292;BME280;36190;54.980;73.388;2022-12-18T06:20:14;102422.69;;;-14.16;71.79
50292;BME280;36190;54.980;73.388;2022-12-18T06:22:42;102422.81;;;-14.12;71.53
50292;BME280;36190;54.980;73.388;2022-12-18T06:25:10;102420.34;;;-14.08;71.48
50292;BME280;36190;54.980;73.388;2022-12-18T06:27:37;102416.94;;;-14.07;71.24
50292;BME280;36190;54.980;73.388;2022-12-18T06:30:06;102422.19;;;-14.03;71.18
50292;BME280;36190;54.980;73.388;2022-12-18T06:32:35;102398.94;;;-14.09;71.24
50292;BME280;36190;54.980;73.388;2022-12-18T06:35:03;102406.84;;;-14.01;71.11
50292;BME280;36190;54.980;73.388;2022-12-18T06:37:31;102406.91;;;-13.98;71.11
50292;BME280;36190;54.980;73.388;2022-12-18T06:39:58;102407.91;;;-13.93;71.22
50292;BME280;36190;54.980;73.388;2022-12-18T06:42:26;102398.53;;;-13.91;71.09
50292;BME280;36190;54.980;73.388;2022-12-18T06:44:55;102407.28;;;-13.83;71.34
50292;BME280;36190;54.980;73.388;2022-12-18T06:47:22;102412.72;;;-13.70;71.34
50292;BME280;36190;54.980;73.388;2022-12-18T06:49:51;102412.13;;;-13.58;71.40
50292;BME280;36190;54.980;73.388;2022-12-18T06:52:19;102406.34;;;-13.49;71.17
50292;BME280;36190;54.980;73.388;2022-12-18T06:54:46;102405.59;;;-13.45;71.09
50292;BME280;36190;54.980;73.388;2022-12-18T06:57:14;102401.34;;;-13.43;70.84
50292;BME280;36190;54.980;73.388;2022-12-18T06:59:41;102400.50;;;-13.42;70.73
50292;BME280;36190;54.980;73.388;2022-12-18T07:02:11;102401.34;;;-13.43;70.77
50292;BME280;36190;54.980;73.388;2022-12-18T07:04:39;102400.44;;;-13.45;70.70
50292;BME280;36190;54.980;73.388;2022-12-18T07:07:08;102405.56;;;-13.47;70.74
50292;BME280;36190;54.980;73.388;2022-12-18T07:09:36;102402.97;;;-13.48;70.84
50292;BME280;36190;54.980;73.388;2022-12-18T07:12:04;102410.69;;;-13.47;70.83
50292;BME280;36190;54.980;73.388;2022-12-18T07:14:32;102410.72;;;-13.45;71.00
50292;BME280;36190;54.980;73.388;2022-12-18T07:16:59;102415.13;;;-13.38;71.04
50292;BME280;36190;54.980;73.388;2022-12-18T07:19:27;102412.91;;;-13.24;71.05
50292;BME280;36190;54.980;73.388;2022-12-18T07:21:54;102424.03;;;-13.23;70.71
50292;BME280;36190;54.980;73.388;2022-12-18T07:24:23;102410.19;;;-13.29;70.58
50292;BME280;36190;54.980;73.388;2022-12-18T07:26:51;102412.75;;;-13.30;70.92
50292;BME280;36190;54.980;73.388;2022-12-18T07:29:18;102407.88;;;-13.18;71.23
50292;BME280;36190;54.980;73.388;2022-12-18T07:31:46;102417.72;;;-12.98;71.06
50292;BME280;36190;54.980;73.388;2022-12-18T07:34:15;102407.78;;;-12.82;71.00
50292;BME280;36190;54.980;73.388;2022-12-18T07:36:42;102401.28;;;-12.63;71.01
50292;BME280;36190;54.980;73.388;2022-12-18T07:39:10;102407.50;;;-12.52;70.78
50292;BME280;36190;54.980;73.388;2022-12-18T07:41:40;102396.53;;;-12.41;70.86
50292;BME280;36190;54.980;73.388;2022-12-18T07:44:12;102396.78;;;-12.29;70.61
50292;BME280;36190;54.980;73.388;2022-12-18T07:46:39;102394.38;;;-12.18;70.74
50292;BME280;36190;54.980;73.388;2022-12-18T07:49:07;102388.56;;;-12.06;70.49
50292;BME280;36190;54.980;73.388;2022-12-18T07:51:34;102386.16;;;-11.95;70.58
50292;BME280;36190;54.980;73.388;2022-12-18T07:54:02;102382.91;;;-11.85;70.35
50292;BME280;36190;54.980;73.388;2022-12-18T07:56:30;102385.69;;;-11.71;70.25
50292;BME280;36190;54.980;73.388;2022-12-18T07:58:59;102378.97;;;-11.63;70.39
50292;BME280;36190;54.980;73.388;2022-12-18T08:01:26;102376.69;;;-11.42;70.33
50292;BME280;36190;54.980;73.388;2022-12-18T08:03:54;102377.75;;;-11.26;70.16
50292;BME280;36190;54.980;73.388;2022-12-18T08:06:21;102377.16;;;-11.07;70.15
50292;BME280;36190;54.980;73.388;2022-12-18T08:08:50;102366.13;;;-10.93;69.88
50292;BME280;36190;54.980;73.388;2022-12-18T08:11:17;102367.16;;;-10.82;69.68
50292;BME280;36190;54.980;73.388;2022-12-18T08:13:45;102366.38;;;-10.74;69.64
50292;BME280;36190;54.980;73.388;2022-12-18T08:16:13;102370.72;;;-10.67;69.33
50292;BME280;36190;54.980;73.388;2022-12-18T08:18:41;102382.00;;;-10.59;69.37
50292;BME280;36190;54.980;73.388;2022-12-18T08:21:09;102382.13;;;-10.50;69.27
50292;BME280;36190;54.980;73.388;2022-12-18T08:23:37;102380.44;;;-10.41;69.40
50292;BME280;36190;54.980;73.388;2022-12-18T08:26:05;102374.56;;;-10.29;69.15
50292;BME280;36190;54.980;73.388;2022-12-18T08:28:33;102378.91;;;-10.20;69.15
50292;BME280;36190;54.980;73.388;2022-12-18T08:31:00;102385.88;;;-10.10;68.84
50292;BME280;36190;54.980;73.388;2022-12-18T08:33:29;102384.25;;;-10.02;68.98
50292;BME280;36190;54.980;73.388;2022-12-18T08:35:58;102386.91;;;-9.94;68.62
50292;BME280;36190;54.980;73.388;2022-12-18T08:38:26;102392.97;;;-9.87;68.81
50292;BME280;36190;54.980;73.388;2022-12-18T08:40:58;102388.75;;;-9.79;68.67
50292;BME280;36190;54.980;73.388;2022-12-18T08:43:26;102392.22;;;-9.74;68.62
50292;BME280;36190;54.980;73.388;2022-12-18T08:46:11;102400.91;;;-9.65;68.72
50292;BME280;36190;54.980;73.388;2022-12-18T08:48:40;102394.88;;;-9.64;68.56
50292;BME280;36190;54.980;73.388;2022-12-18T08:51:08;102399.22;;;-9.60;68.45
50292;BME280;36190;54.980;73.388;2022-12-18T08:53:36;102403.56;;;-9.56;68.24
50292;BME280;36190;54.980;73.388;2022-12-18T08:56:04;102396.66;;;-9.54;68.48
50292;BME280;36190;54.980;73.388;2022-12-18T08:58:31;102403.59;;;-9.48;68.30
50292;BME280;36190;54.980;73.388;2022-12-18T09:01:00;102405.31;;;-9.52;68.26
50292;BME280;36190;54.980;73.388;2022-12-18T09:03:28;102405.28;;;-9.55;68.22
50292;BME280;36190;54.980;73.388;2022-12-18T09:05:57;102404.41;;;-9.59;68.28
50292;BME280;36190;54.980;73.388;2022-12-18T09:08:25;102401.84;;;-9.57;68.51
50292;BME280;36190;54.980;73.388;2022-12-18T09:10:52;102408.72;;;-9.56;68.27
50292;BME280;36190;54.980;73.388;2022-12-18T09:13:21;102405.28;;;-9.58;68.13
50292;BME280;36190;54.980;73.388;2022-12-18T09:15:50;102407.03;;;-9.56;68.26
50292;BME280;36190;54.980;73.388;2022-12-18T09:18:19;102400.09;;;-9.58;68.24
50292;BME280;36190;54.980;73.388;2022-12-18T09:20:47;102418.25;;;-9.50;68.36
50292;BME280;36190;54.980;73.388;2022-12-18T09:23:17;102413.09;;;-9.47;68.27
50292;BME280;36190;54.980;73.388;2022-12-18T09:25:44;102422.50;;;-9.60;68.04
50292;BME280;36190;54.980;73.388;2022-12-18T09:28:13;102424.84;;;-9.87;68.15
50292;BME280;36190;54.980;73.388;2022-12-18T09:30:43;102425.47;;;-10.14;68.20
50292;BME280;36190;54.980;73.388;2022-12-18T09:33:11;102418.34;;;-10.37;68.59
50292;BME280;36190;54.980;73.388;2022-12-18T09:35:38;102419.91;;;-10.55;68.92
50292;BME280;36190;54.980;73.388;2022-12-18T09:38:07;102430.91;;;-10.68;69.23
50292;BME280;36190;54.980;73.388;2022-12-18T09:40:42;102432.41;;;-10.86;69.38
50292;BME280;36190;54.980;73.388;2022-12-18T09:43:16;102433.16;;;-10.96;69.68
50292;BME280;36190;54.980;73.388;2022-12-18T09:45:46;102441.63;;;-11.07;69.77
50292;BME280;36190;54.980;73.388;2022-12-18T09:48:19;102438.88;;;-11.17;70.25
50292;BME280;36190;54.980;73.388;2022-12-18T09:50:50;102431.03;;;-11.25;70.19
50292;BME280;36190;54.980;73.388;2022-12-18T09:53:24;102416.25;;;-11.39;70.34
50292;BME280;36190;54.980;73.388;2022-12-18T09:55:56;102431.00;;;-11.28;70.44
50292;BME280;36190;54.980;73.388;2022-12-18T09:58:29;102436.19;;;-11.25;70.53
50292;BME280;36190;54.980;73.388;2022-12-18T10:00:57;102426.75;;;-11.25;70.60
50292;BME280;36190;54.980;73.388;2022-12-18T10:03:25;102431.88;;;-11.26;70.63
50292;BME280;36190;54.980;73.388;2022-12-18T10:06:01;102439.59;;;-11.26;70.55
50292;BME280;36190;54.980;73.388;2022-12-18T10:08:36;102439.50;;;-11.33;70.57
50292;BME280;36190;54.980;73.388;2022-12-18T10:11:24;102441.06;;;-11.44;70.41
50292;BME280;36190;54.980;73.388;2022-12-18T10:13:57;102439.34;;;-11.45;70.66
50292;BME280;36190;54.980;73.388;2022-12-18T10:16:33;102431.50;;;-11.51;70.76
50292;BME280;36190;54.980;73.388;2022-12-18T10:19:20;102422.84;;;-11.55;70.81
50292;BME280;36190;54.980;73.388;2022-12-18T10:21:59;102427.91;;;-11.61;70.87
50292;BME280;36190;54.980;73.388;2022-12-18T10:24:33;102419.19;;;-11.71;70.94
50292;BME280;36190;54.980;73.388;2022-12-18T10:27:12;102419.88;;;-11.80;71.07
50292;BME280;36190;54.980;73.388;2022-12-18T10:29:42;102431.00;;;-11.82;71.15
50292;BME280;36190;54.980;73.388;2022-12-18T10:32:14;102426.66;;;-11.86;71.30
50292;BME280;36190;54.980;73.388;2022-12-18T10:34:45;102430.00;;;-11.91;71.31
50292;BME280;36190;54.980;73.388;2022-12-18T10:37:16;102445.41;;;-11.94;71.36
50292;BME280;36190;54.980;73.388;2022-12-18T10:39:44;102448.72;;;-12.01;71.51
50292;BME280;36190;54.980;73.388;2022-12-18T10:42:17;102449.59;;;-12.00;71.69
50292;BME280;36190;54.980;73.388;2022-12-18T10:44:45;102450.34;;;-12.06;71.68
50292;BME280;36190;54.980;73.388;2022-12-18T10:47:14;102456.31;;;-12.10;71.89
50292;BME280;36190;54.980;73.388;2022-12-18T10:49:49;102432.72;;;-12.32;71.92
50292;BME280;36190;54.980;73.388;2022-12-18T10:52:20;102461.28;;;-12.18;72.16
50292;BME280;36190;54.980;73.388;2022-12-18T10:54:49;102469.00;;;-12.20;72.03
50292;BME280;36190;54.980;73.388;2022-12-18T10:57:30;102459.56;;;-12.21;72.24
50292;BME280;36190;54.980;73.388;2022-12-18T11:00:00;102473.31;;;-12.19;72.23
50292;BME280;36190;54.980;73.388;2022-12-18T11:02:33;102471.59;;;-12.18;72.25
50292;BME280;36190;54.980;73.388;2022-12-18T11:05:03;102474.91;;;-12.24;72.01
50292;BME280;36190;54.980;73.388;2022-12-18T11:07:49;102463.75;;;-12.26;72.20
50292;BME280;36190;54.980;73.388;2022-12-18T11:10:17;102458.63;;;-12.23;72.26
50292;BME280;36190;54.980;73.388;2022-12-18T11:12:47;102462.97;;;-12.20;72.40
50292;BME280;36190;54.980;73.388;2022-12-18T11:15:19;102467.31;;;-12.18;72.32
50292;BME280;36190;54.980;73.388;2022-12-18T11:17:48;102463.06;;;-12.16;72.28
50292;BME280;36190;54.980;73.388;2022-12-18T11:20:25;102456.34;;;-12.09;72.56
50292;BME280;36190;54.980;73.388;2022-12-18T11:22:55;102449.47;;;-12.08;72.35
50292;BME280;36190;54.980;73.388;2022-12-18T11:25:24;102458.06;;;-12.08;72.41
50292;BME280;36190;54.980;73.388;2022-12-18T11:27:55;102457.19;;;-12.08;72.37
50292;BME280;36190;54.980;73.388;2022-12-18T11:30:25;102433.81;;;-12.19;72.44
50292;BME280;36190;54.980;73.388;2022-12-18T11:32:56;102449.38;;;-12.13;72.35
50292;BME280;36190;54.980;73.388;2022-12-18T11:35:42;102450.34;;;-12.06;72.56
50292;BME280;36190;54.980;73.388;2022-12-18T11:38:18;102447.88;;;-12.00;72.67
50292;BME280;36190;54.980;73.388;2022-12-18T11:40:52;102449.66;;;-11.96;72.57
50292;BME280;36190;54.980;73.388;2022-12-18T11:43:28;102451.44;;;-11.93;72.53
50292;BME280;36190;54.980;73.388;2022-12-18T11:46:01;102460.91;;;-11.91;72.48
50292;BME280;36190;54.980;73.388;2022-12-18T11:48:34;102453.19;;;-11.91;72.68
50292;BME280;36190;54.980;73.388;2022-12-18T11:51:04;102451.53;;;-11.87;72.53
50292;BME280;36190;54.980;73.388;2022-12-18T11:53:36;102447.19;;;-11.90;72.35
50292;BME280;36190;54.980;73.388;2022-12-18T11:56:18;102460.94;;;-11.89;72.32
50292;BME280;36190;54.980;73.388;2022-12-18T11:59:00;102462.63;;;-11.90;72.46
50292;BME280;36190;54.980;73.388;2022-12-18T12:01:40;102463.63;;;-11.83;72.48
50292;BME280;36190;54.980;73.388;2022-12-18T12:07:11;102451.69;;;-11.78;72.44
50292;BME280;36190;54.980;73.388;2022-12-18T12:09:48;102458.50;;;-11.80;72.34
50292;BME280;36190;54.980;73.388;2022-12-18T12:12:30;102452.53;;;-11.80;72.45
50292;BME280;36190;54.980;73.388;2022-12-18T12:15:19;102447.34;;;-11.82;72.70
50292;BME280;36190;54.980;73.388;2022-12-18T12:17:53;102446.44;;;-11.84;72.51
50292;BME280;36190;54.980;73.388;2022-12-18T12:20:27;102452.53;;;-11.80;72.63
50292;BME280;36190;54.980;73.388;2022-12-18T12:23:03;102446.50;;;-11.81;72.75
50292;BME280;36190;54.980;73.388;2022-12-18T12:25:36;102459.44;;;-11.76;72.71
50292;BME280;36190;54.980;73.388;2022-12-18T12:28:15;102450.97;;;-11.69;72.87
50292;BME280;36190;54.980;73.388;2022-12-18T12:30:55;102437.19;;;-11.72;72.81
50292;BME280;36190;54.980;73.388;2022-12-18T12:33:36;102439.81;;;-11.68;72.89
50292;BME280;36190;54.980;73.388;2022-12-18T12:36:14;102428.75;;;-11.64;72.89
50292;BME280;36190;54.980;73.388;2022-12-18T12:38:47;102431.38;;;-11.61;72.91
50292;BME280;36190;54.980;73.388;2022-12-18T12:41:19;102432.25;;;-11.58;72.73
50292;BME280;36190;54.980;73.388;2022-12-18T12:44:08;102428.81;;;-11.57;72.77
50292;BME280;36190;54.980;73.388;2022-12-18T12:46:41;102433.22;;;-11.52;73.23
50292;BME280;36190;54.980;73.388;2022-12-18T12:49:12;102437.53;;;-11.49;72.94
50292;BME280;36190;54.980;73.388;2022-12-18T12:51:43;102445.41;;;-11.41;72.93